createdAt,value
2023-01-23T00:01:56.767Z,4.82
2023-01-23T00:03:58.883Z,4.05
2023-01-23T00:06:02.482Z,4.88
2023-01-23T00:08:04.290Z,4.18
2023-01-23T00:10:06.636Z,5.15
2023-01-23T00:12:08.280Z,3.72
2023-01-23T00:14:10.790Z,4.63
2023-01-23T00:16:15.446Z,4.90
2023-01-23T00:18:17.662Z,4.38
2023-01-23T00:20:19.578Z,4.30
2023-01-23T00:22:21.601Z,4.53
2023-01-23T00:24:23.162Z,4.45
2023-01-23T00:26:28.161Z,5.15
2023-01-23T00:30:31.558Z,4.93
2023-01-23T00:32:33.252Z,6.75
2023-01-23T00:34:34.896Z,5.43
2023-01-23T00:36:39.476Z,5.35
2023-01-23T00:38:41.702Z,5.38
2023-01-23T00:40:43.380Z,5.50
2023-01-23T00:42:44.932Z,5.00
2023-01-23T00:44:46.551Z,5.32
2023-01-23T00:46:48.850Z,5.40
2023-01-23T00:48:51.123Z,5.75
2023-01-23T00:50:52.902Z,5.60
2023-01-23T00:52:54.563Z,5.13
2023-01-23T00:54:56.171Z,5.80
2023-01-23T00:56:57.964Z,5.00
2023-01-23T00:58:59.620Z,4.85
2023-01-23T01:01:01.288Z,4.80
2023-01-23T01:03:03.107Z,5.03
2023-01-23T01:05:05.128Z,5.00
2023-01-23T01:07:06.771Z,4.97
2023-01-23T01:09:08.402Z,5.40
2023-01-23T01:11:10.082Z,4.82
2023-01-23T01:13:12.185Z,4.80
2023-01-23T01:15:14.217Z,4.15
2023-01-23T01:17:15.822Z,4.60
2023-01-23T01:19:19.050Z,4.70
2023-01-23T01:21:20.872Z,4.82
2023-01-23T01:23:22.702Z,4.10
2023-01-23T01:25:24.815Z,4.30
2023-01-23T01:27:26.441Z,4.13
2023-01-23T01:29:28.034Z,3.22
2023-01-23T01:31:29.807Z,3.15
2023-01-23T01:33:31.568Z,3.90
2023-01-23T01:35:33.535Z,3.72
2023-01-23T01:37:36.318Z,3.88
2023-01-23T01:39:37.911Z,7.78
2023-01-23T01:41:39.581Z,4.40
2023-01-23T01:43:41.924Z,3.30
2023-01-23T01:46:05.856Z,3.60
2023-01-23T01:48:07.471Z,3.38
2023-01-23T01:50:12.413Z,3.40
2023-01-23T01:52:15.168Z,3.80
2023-01-23T01:54:33.307Z,3.25
2023-01-23T01:56:44.702Z,3.83
2023-01-23T01:58:47.897Z,3.70
2023-01-23T02:00:49.598Z,4.50
2023-01-23T02:02:54.168Z,3.35
2023-01-23T02:05:02.194Z,3.80
2023-01-23T02:07:09.210Z,3.60
2023-01-23T02:09:26.743Z,3.75
2023-01-23T02:11:28.560Z,3.80
2023-01-23T02:13:36.161Z,3.88
2023-01-23T02:15:38.280Z,3.67
2023-01-23T02:17:40.199Z,3.95
2023-01-23T02:19:59.393Z,4.03
2023-01-23T02:22:13.763Z,4.32
2023-01-23T02:24:37.209Z,3.50
2023-01-23T02:26:41.189Z,3.53
2023-01-23T02:28:45.514Z,3.55
2023-01-23T02:30:47.367Z,3.80
2023-01-23T02:32:49.092Z,3.45
2023-01-23T02:34:52.622Z,3.67
2023-01-23T02:36:54.572Z,3.50
2023-01-23T02:39:09.554Z,3.10
2023-01-23T02:41:12.613Z,3.85
2023-01-23T02:43:16.641Z,3.75
2023-01-23T02:45:18.300Z,3.72
2023-01-23T02:47:19.912Z,4.07
2023-01-23T02:49:22.400Z,3.88
2023-01-23T02:51:24.350Z,3.45
2023-01-23T02:53:26.915Z,3.47
2023-01-23T02:55:33.222Z,3.70
2023-01-23T02:57:35.063Z,3.45
2023-01-23T02:59:55.047Z,4.10
2023-01-23T03:01:57.693Z,4.18
2023-01-23T03:04:04.046Z,3.60
2023-01-23T03:06:06.069Z,3.63
2023-01-23T03:08:07.680Z,3.60
2023-01-23T03:10:10.704Z,3.05
2023-01-23T03:12:12.394Z,3.40
2023-01-23T03:14:16.914Z,3.50
2023-01-23T03:16:18.590Z,3.83
2023-01-23T03:18:20.567Z,3.03
2023-01-23T03:20:24.717Z,2.90
2023-01-23T03:22:26.649Z,3.47
2023-01-23T03:24:28.332Z,3.30
2023-01-23T03:26:29.958Z,3.55
2023-01-23T03:29:03.741Z,3.42
2023-01-23T03:31:05.976Z,3.08
2023-01-23T03:33:07.674Z,3.17
2023-01-23T03:35:10.323Z,3.42
2023-01-23T03:37:13.305Z,4.78
2023-01-23T03:39:33.405Z,3.40
2023-01-23T03:41:35.083Z,3.40
2023-01-23T03:43:36.634Z,2.97
2023-01-23T03:45:38.309Z,3.67
2023-01-23T03:47:39.960Z,3.55
2023-01-23T03:49:41.678Z,3.15
2023-01-23T03:51:43.609Z,3.75
2023-01-23T03:53:45.402Z,3.33
2023-01-23T03:55:47.535Z,3.65
2023-01-23T03:57:49.219Z,3.30
2023-01-23T03:59:50.803Z,3.28
2023-01-23T04:01:52.465Z,3.35
2023-01-23T04:03:54.079Z,3.38
2023-01-23T04:05:57.679Z,3.17
2023-01-23T04:07:59.362Z,3.10
2023-01-23T04:10:00.980Z,3.42
2023-01-23T04:12:02.601Z,3.38
2023-01-23T04:14:04.186Z,4.05
2023-01-23T04:16:06.669Z,3.50
2023-01-23T04:18:08.454Z,4.22
2023-01-23T04:20:11.648Z,3.97
2023-01-23T04:22:13.257Z,3.60
2023-01-23T04:24:16.023Z,4.47
2023-01-23T04:26:17.714Z,4.78
2023-01-23T04:28:19.527Z,3.78
2023-01-23T04:30:21.374Z,3.80
2023-01-23T04:32:23.133Z,3.65
2023-01-23T04:34:24.758Z,4.25
2023-01-23T04:36:26.383Z,3.83
2023-01-23T04:38:29.283Z,3.67
2023-01-23T04:40:30.866Z,3.42
2023-01-23T04:42:32.456Z,3.10
2023-01-23T04:44:34.081Z,2.95
2023-01-23T04:46:35.678Z,3.55
2023-01-23T04:48:37.238Z,3.38
2023-01-23T04:50:39.527Z,3.00
2023-01-23T04:52:41.164Z,2.80
2023-01-23T04:54:43.130Z,3.33
2023-01-23T04:57:03.700Z,2.88
2023-01-23T04:59:05.409Z,3.13
2023-01-23T05:01:08.130Z,3.00
2023-01-23T05:03:09.897Z,2.80
2023-01-23T05:05:12.524Z,3.17
2023-01-23T05:07:14.326Z,2.72
2023-01-23T05:09:15.907Z,3.13
2023-01-23T05:11:17.676Z,2.83
2023-01-23T05:13:19.277Z,3.67
2023-01-23T05:15:21.385Z,3.90
2023-01-23T05:17:23.105Z,3.80
2023-01-23T05:19:24.806Z,3.70
2023-01-23T05:21:26.535Z,3.90
2023-01-23T05:23:28.080Z,4.07
2023-01-23T05:25:29.841Z,3.50
2023-01-23T05:27:31.529Z,3.53
2023-01-23T05:29:33.147Z,3.92
2023-01-23T05:31:34.843Z,3.53
2023-01-23T05:33:36.586Z,3.45
2023-01-23T05:35:40.949Z,3.35
2023-01-23T05:37:42.942Z,3.28
2023-01-23T05:39:44.686Z,4.53
2023-01-23T05:41:46.294Z,3.88
2023-01-23T05:43:50.032Z,3.60
2023-01-23T05:45:51.900Z,3.03
2023-01-23T05:47:55.841Z,3.15
2023-01-23T05:49:57.936Z,3.38
2023-01-23T05:51:59.658Z,3.10
2023-01-23T05:54:02.784Z,3.25
2023-01-23T05:56:08.440Z,3.28
2023-01-23T05:58:10.048Z,3.88
2023-01-23T06:00:13.496Z,2.83
2023-01-23T06:02:15.184Z,2.88
2023-01-23T06:04:16.821Z,2.83
2023-01-23T06:06:18.483Z,2.72
2023-01-23T06:08:20.181Z,3.33
2023-01-23T06:10:22.219Z,2.85
2023-01-23T06:12:23.919Z,3.30
2023-01-23T06:14:25.499Z,2.80
2023-01-23T06:16:27.591Z,2.90
2023-01-23T06:18:29.211Z,3.20
2023-01-23T06:20:30.878Z,3.30
2023-01-23T06:22:32.733Z,2.92
2023-01-23T06:24:34.473Z,3.13
2023-01-23T06:26:36.080Z,2.80
2023-01-23T06:28:37.889Z,2.65
2023-01-23T06:30:39.536Z,2.63
2023-01-23T06:32:41.328Z,2.42
2023-01-23T06:34:43.169Z,2.83
2023-01-23T06:36:46.243Z,2.80
2023-01-23T06:38:47.885Z,2.80
2023-01-23T06:40:49.469Z,2.83
2023-01-23T06:42:54.828Z,3.20
2023-01-23T06:44:56.480Z,3.15
2023-01-23T06:46:58.166Z,2.72
2023-01-23T06:49:00.010Z,3.10
2023-01-23T06:51:02.308Z,3.22
2023-01-23T06:53:05.432Z,3.40
2023-01-23T06:55:07.304Z,3.57
2023-01-23T06:57:09.112Z,3.83
2023-01-23T06:59:10.929Z,4.13
2023-01-23T07:01:16.021Z,3.60
2023-01-23T07:03:17.784Z,4.15
2023-01-23T07:05:20.271Z,4.38
2023-01-23T07:07:21.897Z,4.13
2023-01-23T07:09:23.515Z,4.93
2023-01-23T07:11:25.574Z,5.40
2023-01-23T07:13:27.339Z,5.72
2023-01-23T07:15:29.015Z,5.32
2023-01-23T07:17:30.641Z,5.70
2023-01-23T07:19:32.576Z,5.07
2023-01-23T07:21:34.461Z,6.45
2023-01-23T07:23:36.263Z,5.57
2023-01-23T07:25:38.108Z,5.43
2023-01-23T07:27:39.948Z,5.72
2023-01-23T07:29:42.878Z,5.57
2023-01-23T07:31:44.700Z,6.57
2023-01-23T07:33:46.355Z,6.82
2023-01-23T07:35:48.089Z,7.88
2023-01-23T07:37:49.939Z,8.43
2023-01-23T07:39:51.648Z,7.47
2023-01-23T07:41:53.238Z,7.43
2023-01-23T07:43:55.110Z,7.90
2023-01-23T07:46:00.459Z,7.95
2023-01-23T07:48:02.053Z,7.70
2023-01-23T07:50:04.029Z,8.48
2023-01-23T07:52:05.674Z,8.73
2023-01-23T07:54:07.588Z,8.25
2023-01-23T07:56:09.415Z,8.63
2023-01-23T07:58:11.152Z,7.65
2023-01-23T08:00:12.931Z,8.75
2023-01-23T08:02:14.735Z,9.35
2023-01-23T08:04:16.473Z,7.80
2023-01-23T08:06:18.059Z,6.53
2023-01-23T08:08:19.663Z,7.82
2023-01-23T08:10:21.634Z,7.15
2023-01-23T08:12:23.625Z,7.32
2023-01-23T08:14:25.285Z,7.35
2023-01-23T08:16:27.072Z,6.93
2023-01-23T08:18:30.633Z,6.78
2023-01-23T08:20:32.196Z,6.40
2023-01-23T08:22:34.024Z,6.50
2023-01-23T08:24:35.898Z,5.57
2023-01-23T08:26:37.717Z,5.47
2023-01-23T08:28:39.673Z,6.20
2023-01-23T08:30:41.504Z,6.30
2023-01-23T08:32:43.177Z,7.50
2023-01-23T08:34:44.760Z,5.72
2023-01-23T08:36:46.334Z,5.88
2023-01-23T08:38:48.306Z,5.20
2023-01-23T08:40:51.706Z,6.07
2023-01-23T08:42:54.066Z,4.85
2023-01-23T08:44:56.792Z,5.05
2023-01-23T08:46:58.461Z,5.10
2023-01-23T08:49:00.252Z,5.28
2023-01-23T08:51:07.854Z,5.10
2023-01-23T08:53:09.470Z,5.00
2023-01-23T08:55:12.775Z,5.15
2023-01-23T08:57:14.463Z,4.40
2023-01-23T08:59:16.081Z,12.38
2023-01-23T09:01:23.415Z,5.18
2023-01-23T09:03:25.679Z,4.95
2023-01-23T09:05:28.987Z,5.00
2023-01-23T09:07:30.873Z,5.10
2023-01-23T09:09:32.548Z,4.82
2023-01-23T09:11:34.240Z,5.25
2023-01-23T09:13:36.009Z,4.82
2023-01-23T09:15:39.397Z,4.88
2023-01-23T09:17:41.021Z,4.80
2023-01-23T09:19:42.667Z,4.43
2023-01-23T09:21:44.697Z,4.55
2023-01-23T09:23:46.314Z,4.78
2023-01-23T09:25:48.042Z,5.47
2023-01-23T09:27:49.704Z,5.53
2023-01-23T09:29:51.389Z,4.38
2023-01-23T09:31:53.039Z,3.67
2023-01-23T09:33:54.721Z,12.25
2023-01-23T09:35:57.748Z,4.68
2023-01-23T09:38:02.313Z,4.97
2023-01-23T09:40:04.277Z,3.70
2023-01-23T09:42:08.519Z,4.55
2023-01-23T09:44:13.310Z,4.30
2023-01-23T09:46:32.553Z,4.55
2023-01-23T09:48:44.332Z,4.68
2023-01-23T09:50:55.412Z,4.80
2023-01-23T09:53:04.878Z,5.32
2023-01-23T09:55:19.319Z,4.80
2023-01-23T09:57:24.166Z,4.90
2023-01-23T09:59:53.761Z,4.70
2023-01-23T10:01:59.773Z,5.38
2023-01-23T10:04:02.389Z,4.95
2023-01-23T10:06:26.866Z,5.07
2023-01-23T10:08:51.305Z,5.40
2023-01-23T10:10:54.564Z,4.47
2023-01-23T10:13:20.894Z,4.55
2023-01-23T10:15:45.767Z,5.38
2023-01-23T10:18:20.261Z,5.38
2023-01-23T10:20:34.056Z,6.15
2023-01-23T10:22:41.769Z,5.53
2023-01-23T10:24:55.663Z,6.78
2023-01-23T10:27:03.619Z,5.18
2023-01-23T10:29:38.602Z,5.45
2023-01-23T10:33:49.762Z,5.28
2023-01-23T10:35:53.712Z,5.30
2023-01-23T10:38:12.560Z,5.22
2023-01-23T10:40:17.203Z,5.38
2023-01-23T10:42:22.426Z,5.30
2023-01-23T10:44:24.318Z,5.68
2023-01-23T10:46:35.946Z,5.20
2023-01-23T10:48:49.099Z,5.45
2023-01-23T10:50:51.650Z,5.53
2023-01-23T10:53:06.063Z,6.15
2023-01-23T10:55:20.193Z,6.55
2023-01-23T11:00:04.535Z,6.53
2023-01-23T11:02:15.932Z,7.28
2023-01-23T11:04:23.730Z,6.85
2023-01-23T11:06:26.223Z,7.43
2023-01-23T11:08:36.802Z,7.18
2023-01-23T11:10:38.508Z,7.75
2023-01-23T11:12:54.355Z,7.07
2023-01-23T11:15:31.296Z,7.00
2023-01-23T11:17:33.399Z,7.35
2023-01-23T11:19:37.128Z,7.95
2023-01-23T11:21:51.715Z,7.22
2023-01-23T11:24:20.450Z,7.72
2023-01-23T11:26:34.545Z,7.45
2023-01-23T11:28:48.861Z,8.20
2023-01-23T11:33:02.308Z,7.60
2023-01-23T11:35:13.495Z,7.63
2023-01-23T11:37:25.816Z,7.35
2023-01-23T11:39:37.998Z,7.90
2023-01-23T11:41:39.902Z,8.45
2023-01-23T11:43:41.999Z,7.57
2023-01-23T11:46:30.953Z,7.68
2023-01-23T11:48:54.999Z,6.85
2023-01-23T11:51:19.004Z,7.35
2023-01-23T11:53:36.698Z,7.28
2023-01-23T11:56:13.457Z,6.60
2023-01-23T11:58:30.814Z,6.78
2023-01-23T12:00:44.230Z,7.10
2023-01-23T12:02:58.687Z,7.17
2023-01-23T12:05:16.406Z,6.68
2023-01-23T12:07:21.835Z,6.88
2023-01-23T12:09:29.628Z,6.57
2023-01-23T12:11:41.232Z,6.78
2023-01-23T12:14:04.937Z,6.82
2023-01-23T12:16:28.099Z,7.20
2023-01-23T12:18:44.824Z,6.70
2023-01-23T12:20:52.898Z,7.38
2023-01-23T12:23:07.549Z,6.35
2023-01-23T12:25:33.887Z,6.35
2023-01-23T12:27:43.858Z,6.93
2023-01-23T12:30:22.821Z,6.53
2023-01-23T12:32:55.343Z,6.57
2023-01-23T12:35:21.575Z,6.50
2023-01-23T12:37:54.781Z,6.63
2023-01-23T12:39:59.457Z,6.43
2023-01-23T12:42:07.129Z,7.28
2023-01-23T12:44:16.805Z,7.38
2023-01-23T12:46:48.006Z,7.05
2023-01-23T12:48:56.070Z,7.38
2023-01-23T12:51:15.552Z,7.07
2023-01-23T12:53:20.293Z,7.15
2023-01-23T12:55:25.090Z,7.03
2023-01-23T12:57:59.266Z,6.45
2023-01-23T13:00:07.931Z,7.50
2023-01-23T13:02:15.616Z,8.02
2023-01-23T13:04:35.201Z,6.28
2023-01-23T13:06:48.915Z,7.38
2023-01-23T13:09:35.527Z,6.60
2023-01-23T13:12:04.614Z,6.40
2023-01-23T13:15:06.491Z,7.32
2023-01-23T13:17:38.223Z,7.30
2023-01-23T13:20:00.883Z,7.60
2023-01-23T13:22:22.321Z,7.45
2023-01-23T13:24:52.679Z,7.95
2023-01-23T13:26:54.523Z,7.90
2023-01-23T13:28:58.685Z,8.07
2023-01-23T13:31:02.707Z,7.93
2023-01-23T13:35:43.425Z,7.07
2023-01-23T13:37:51.493Z,8.35
2023-01-23T13:40:17.221Z,8.30
2023-01-23T13:42:39.105Z,7.50
2023-01-23T13:45:18.653Z,7.63
2023-01-23T14:38:37.723Z,6.80
2023-01-23T14:40:50.210Z,6.70
2023-01-23T14:42:59.504Z,6.72
2023-01-23T14:45:02.316Z,6.63
2023-01-23T14:47:05.088Z,6.93
2023-01-23T14:49:08.114Z,6.97
2023-01-23T14:51:25.484Z,7.20
2023-01-23T14:53:27.104Z,7.43
2023-01-23T14:55:30.416Z,7.15
2023-01-23T14:57:32.288Z,7.30
2023-01-23T14:59:38.672Z,7.20
2023-01-23T15:01:40.356Z,6.97
2023-01-23T15:03:45.007Z,6.95
2023-01-23T15:05:57.247Z,7.03
2023-01-23T15:08:03.224Z,6.43
2023-01-23T15:10:05.237Z,6.90
2023-01-23T15:12:08.881Z,6.50
2023-01-23T15:14:29.378Z,6.53
2023-01-23T15:16:38.213Z,6.72
2023-01-23T15:18:40.183Z,6.80
2023-01-23T15:20:41.943Z,6.03
2023-01-23T15:22:43.578Z,6.45
2023-01-23T15:24:45.347Z,6.93
2023-01-23T15:26:59.015Z,6.05
2023-01-23T15:29:09.675Z,6.22
2023-01-23T15:31:27.541Z,7.13
2023-01-23T15:33:31.052Z,6.43
2023-01-23T15:35:37.319Z,7.22
2023-01-23T15:37:38.977Z,7.55
2023-01-23T15:39:50.645Z,6.60
2023-01-23T15:41:56.225Z,6.80
2023-01-23T15:43:57.768Z,6.15
2023-01-23T15:46:00.621Z,6.13
2023-01-23T15:48:02.326Z,6.28
2023-01-23T15:50:04.105Z,6.05
2023-01-23T15:52:24.214Z,6.25
2023-01-23T15:54:36.109Z,6.00
2023-01-23T15:56:38.775Z,6.07
2023-01-23T15:58:40.378Z,5.82
2023-01-23T16:00:42.126Z,7.15
2023-01-23T16:02:55.013Z,6.80
2023-01-23T16:04:57.907Z,7.05
2023-01-23T16:07:07.125Z,6.07
2023-01-23T16:09:15.802Z,7.47
2023-01-23T16:11:18.561Z,6.95
2023-01-23T16:13:20.186Z,6.60
2023-01-23T16:15:24.958Z,6.55
2023-01-23T16:17:26.676Z,6.40
2023-01-23T16:19:28.262Z,6.07
2023-01-23T16:21:30.521Z,6.75
2023-01-23T16:23:42.533Z,6.55
2023-01-23T16:25:49.390Z,7.07
2023-01-23T16:27:51.288Z,8.00
2023-01-23T16:29:54.089Z,6.57
2023-01-23T16:31:56.619Z,7.20
2023-01-23T16:33:58.460Z,6.45
2023-01-23T16:36:00.218Z,7.10
2023-01-23T16:38:02.051Z,7.45
2023-01-23T16:40:04.038Z,7.20
2023-01-23T16:42:05.741Z,6.50
2023-01-23T16:44:18.732Z,6.35
2023-01-23T16:46:20.479Z,5.88
2023-01-23T16:48:27.120Z,6.00
2023-01-23T16:50:37.819Z,6.20
2023-01-23T16:52:40.380Z,6.32
2023-01-23T16:54:42.994Z,6.65
2023-01-23T16:56:45.007Z,6.03
2023-01-23T16:58:46.751Z,6.10
2023-01-23T17:00:49.924Z,6.22
2023-01-23T17:02:53.944Z,6.18
2023-01-23T17:06:57.139Z,5.82
2023-01-23T17:08:59.072Z,5.72
2023-01-23T17:11:02.860Z,6.35
2023-01-23T17:13:04.530Z,5.70
2023-01-23T17:15:07.078Z,6.57
2023-01-23T17:17:14.318Z,6.43
2023-01-23T17:19:41.673Z,5.97
2023-01-23T17:21:44.366Z,5.88
2023-01-23T17:23:46.714Z,6.32
2023-01-23T17:25:59.934Z,5.50
2023-01-23T17:28:12.892Z,5.90
2023-01-23T17:30:21.324Z,5.97
2023-01-23T17:32:39.137Z,6.20
2023-01-23T17:34:49.416Z,5.55
2023-01-23T17:36:53.032Z,5.00
2023-01-23T17:38:55.871Z,5.30
2023-01-23T17:40:57.523Z,5.63
2023-01-23T17:42:59.138Z,5.50
2023-01-23T17:45:00.764Z,5.18
2023-01-23T17:47:02.421Z,5.93
2023-01-23T17:49:04.589Z,5.18
2023-01-23T17:51:14.656Z,5.57
2023-01-23T17:53:17.285Z,5.80
2023-01-23T17:55:25.498Z,5.50
2023-01-23T17:57:27.229Z,5.40
2023-01-23T17:59:28.886Z,5.50
2023-01-23T18:01:30.696Z,5.65
2023-01-23T18:03:32.534Z,4.97
2023-01-23T18:05:34.384Z,5.40
2023-01-23T18:07:48.441Z,5.47
2023-01-23T18:09:56.325Z,5.43
2023-01-23T18:11:59.143Z,5.60
2023-01-23T18:14:15.855Z,5.43
2023-01-23T18:16:24.772Z,4.88
2023-01-23T18:18:26.363Z,4.82
2023-01-23T18:20:28.701Z,4.88
2023-01-23T18:22:31.115Z,5.28
2023-01-23T18:24:33.464Z,5.00
2023-01-23T18:26:45.459Z,5.00
2023-01-23T18:29:13.336Z,5.10
2023-01-23T18:31:40.928Z,4.47
2023-01-23T18:33:54.549Z,4.65
2023-01-23T18:36:02.712Z,4.88
2023-01-23T18:38:17.333Z,5.57
2023-01-23T18:40:45.264Z,5.55
2023-01-23T18:43:08.637Z,5.00
2023-01-23T18:45:23.663Z,5.25
2023-01-23T18:47:28.695Z,5.47
2023-01-23T18:49:32.960Z,5.07
2023-01-23T18:52:10.248Z,4.43
2023-01-23T18:54:38.924Z,5.50
2023-01-23T18:56:52.387Z,4.65
2023-01-23T18:59:10.272Z,4.47
2023-01-23T19:01:24.073Z,4.50
2023-01-23T19:03:36.690Z,4.82
2023-01-23T19:05:38.394Z,4.68
2023-01-23T19:07:40.789Z,4.68
2023-01-23T19:09:46.532Z,4.60
2023-01-23T19:12:25.330Z,4.50
2023-01-23T19:14:30.543Z,4.40
2023-01-23T19:16:33.297Z,3.67
2023-01-23T19:18:40.084Z,9.68
2023-01-23T19:20:46.788Z,4.22
2023-01-23T19:23:19.346Z,4.32
2023-01-23T19:25:22.137Z,4.43
2023-01-23T19:27:24.237Z,3.90
2023-01-23T19:29:26.138Z,3.90
2023-01-23T19:31:30.117Z,3.40
2023-01-23T19:33:31.898Z,3.47
2023-01-23T19:35:33.629Z,3.28
2023-01-23T19:37:39.807Z,4.35
2023-01-23T19:39:41.416Z,4.47
2023-01-23T19:41:45.241Z,4.50
2023-01-23T19:45:49.181Z,4.10
2023-01-23T19:47:53.419Z,3.70
2023-01-23T19:49:55.044Z,4.32
2023-01-23T19:51:56.708Z,4.03
2023-01-23T19:53:58.761Z,4.82
2023-01-23T19:56:01.457Z,4.35
2023-01-23T19:58:03.160Z,4.55
2023-01-23T20:00:05.789Z,4.60
2023-01-23T20:02:19.561Z,4.13
2023-01-23T20:04:23.183Z,4.22
2023-01-23T20:06:24.833Z,4.00
2023-01-23T20:08:26.492Z,4.28
2023-01-23T20:10:28.331Z,3.85
2023-01-23T20:12:30.035Z,4.05
2023-01-23T20:14:31.833Z,3.80
2023-01-23T20:16:33.450Z,4.13
2023-01-23T20:18:35.104Z,3.60
2023-01-23T20:20:36.830Z,3.95
2023-01-23T20:22:39.607Z,3.40
2023-01-23T20:24:41.255Z,3.67
2023-01-23T20:26:42.871Z,3.80
2023-01-23T20:28:47.895Z,3.90
2023-01-23T20:30:49.567Z,3.63
2023-01-23T20:32:51.273Z,3.80
2023-01-23T20:34:55.331Z,4.03
2023-01-23T20:36:56.936Z,3.53
2023-01-23T20:38:58.773Z,3.85
2023-01-23T20:41:04.743Z,3.88
2023-01-23T20:43:06.384Z,4.65
2023-01-23T20:45:08.877Z,3.80
2023-01-23T20:47:10.575Z,3.58
2023-01-23T20:49:13.585Z,3.80
2023-01-23T20:51:16.625Z,3.33
2023-01-23T20:53:30.202Z,3.53
2023-01-23T20:55:31.740Z,3.85
2023-01-23T20:57:51.791Z,4.05
2023-01-23T20:59:53.392Z,3.65
2023-01-23T21:02:13.382Z,3.58
2023-01-23T21:04:14.994Z,4.18
2023-01-23T21:06:17.854Z,3.83
2023-01-23T21:08:19.469Z,3.33
2023-01-23T21:10:21.062Z,3.53
2023-01-23T21:12:22.694Z,3.60
2023-01-23T21:14:24.552Z,4.03
2023-01-23T21:16:26.347Z,3.80
2023-01-23T21:18:28.549Z,4.07
2023-01-23T21:20:30.155Z,4.20
2023-01-23T21:22:31.798Z,4.00
2023-01-23T21:24:34.571Z,4.30
2023-01-23T21:26:37.149Z,3.50
2023-01-23T21:28:39.006Z,3.83
2023-01-23T21:30:40.952Z,3.88
2023-01-23T21:32:42.722Z,4.20
2023-01-23T21:34:44.344Z,3.88
2023-01-23T21:36:45.950Z,4.18
2023-01-23T21:38:51.177Z,4.75
2023-01-23T21:40:54.005Z,4.15
2023-01-23T21:42:55.790Z,3.72
2023-01-23T21:44:58.093Z,4.20
2023-01-23T21:46:59.680Z,4.20
2023-01-23T21:49:01.532Z,4.30
2023-01-23T21:51:05.036Z,4.00
2023-01-23T21:53:07.500Z,4.18
2023-01-23T21:55:09.437Z,4.25
2023-01-23T21:57:10.987Z,4.25
2023-01-23T21:59:12.659Z,3.80
2023-01-23T22:01:32.961Z,4.28
2023-01-23T22:03:35.836Z,7.68
2023-01-23T22:05:37.586Z,4.65
2023-01-23T22:07:39.245Z,3.88
2023-01-23T22:09:40.946Z,4.15
2023-01-23T22:11:42.859Z,4.35
2023-01-23T22:13:44.605Z,4.28
2023-01-23T22:15:46.322Z,4.82
2023-01-23T22:17:48.033Z,4.32
2023-01-23T22:19:50.804Z,4.35
2023-01-23T22:21:54.207Z,4.32
2023-01-23T22:23:55.945Z,4.05
2023-01-23T22:25:59.801Z,4.43
2023-01-23T22:30:03.105Z,4.55
2023-01-23T22:32:05.008Z,4.68
2023-01-23T22:34:07.153Z,4.05
2023-01-23T22:36:11.578Z,4.50
2023-01-23T22:38:14.533Z,4.40
2023-01-23T22:40:16.459Z,4.23
2023-01-23T22:42:19.192Z,4.55
2023-01-23T22:44:20.900Z,4.50
2023-01-23T22:46:23.618Z,4.93
2023-01-23T22:48:25.200Z,5.03
2023-01-23T22:50:27.501Z,4.50
2023-01-23T22:52:29.203Z,4.30
2023-01-23T22:54:30.908Z,5.00
2023-01-23T22:56:32.625Z,4.38
2023-01-23T22:58:34.796Z,4.30
2023-01-23T23:00:36.357Z,4.78
2023-01-23T23:02:39.149Z,5.47
2023-01-23T23:04:40.791Z,7.22
2023-01-23T23:06:42.380Z,11.13
2023-01-23T23:08:47.237Z,12.55
2023-01-23T23:11:09.018Z,12.05
2023-01-23T23:13:10.604Z,9.27
2023-01-23T23:15:12.205Z,6.03
2023-01-23T23:17:13.846Z,6.53
2023-01-23T23:19:15.605Z,7.40
2023-01-23T23:21:20.578Z,7.43
2023-01-23T23:23:22.237Z,6.97
2023-01-23T23:25:23.820Z,6.95
2023-01-23T23:27:25.409Z,5.45
2023-01-23T23:29:27.085Z,4.88
2023-01-23T23:31:29.361Z,4.75
2023-01-23T23:33:31.232Z,4.68
2023-01-23T23:35:32.863Z,6.07
2023-01-23T23:37:34.783Z,4.82
2023-01-23T23:39:36.410Z,5.45
2023-01-23T23:41:38.131Z,5.00
2023-01-23T23:43:39.791Z,4.25
2023-01-23T23:45:51.856Z,4.32
2023-01-23T23:47:55.066Z,3.65
2023-01-23T23:49:56.737Z,4.30
2023-01-23T23:51:58.347Z,3.95
2023-01-23T23:54:00.027Z,3.42
2023-01-23T23:56:02.080Z,4.15
2023-01-23T23:58:03.715Z,44.97
